< < Back
Terminal Aerodrome Forecast


Current Version              Previous Versions:   1  2  3  4  5  6  7  8  9  

Terminal Aerodrome Forecast

768
FTUS42 KTAE 291100
TAFTLH
TAF
KTLH 291120Z 2912/3012 33011KT P6SM FEW120
     FM300000 33005KT P6SM SKC=

Latest METAR

702
SAUS80 KWBC 291400 RRB
MTRTLH
METAR KTLH 291353Z 35005KT 10SM FEW030 SCT100 27/22 A2999 RMK AO2 SLP151
T02670222 $


USA.gov is the U.S. government's official web portal to all federal, state and local government web resources and services.